createdAt,value
2018-04-11T00:00:05.069Z,5.20
2018-04-11T00:01:06.858Z,4.90
2018-04-11T00:02:09.031Z,4.83
2018-04-11T00:03:11.197Z,5.50
2018-04-11T00:04:14.347Z,5.00
2018-04-11T00:05:15.794Z,6.13
2018-04-11T00:06:18.042Z,5.67
2018-04-11T00:07:19.556Z,5.50
2018-04-11T00:08:21.698Z,6.20
2018-04-11T00:09:23.120Z,6.03
2018-04-11T00:10:25.277Z,5.40
2018-04-11T00:11:26.969Z,6.10
2018-04-11T00:13:20.400Z,6.20
2018-04-11T00:14:21.843Z,5.40
2018-04-11T00:15:23.294Z,5.87
2018-04-11T00:16:24.706Z,6.40
2018-04-11T00:17:26.155Z,6.23
2018-04-11T00:18:27.581Z,5.60
2018-04-11T00:19:29.032Z,6.03
2018-04-11T00:20:30.609Z,7.00
2018-04-11T00:21:32.066Z,5.87
2018-04-11T00:22:35.273Z,7.00
2018-04-11T00:23:36.729Z,6.47
2018-04-11T00:24:39.883Z,6.47
2018-04-11T00:25:41.324Z,5.70
2018-04-11T00:26:42.773Z,6.77
2018-04-11T00:27:44.973Z,7.17
2018-04-11T00:28:47.146Z,6.43
2018-04-11T00:29:50.070Z,7.57
2018-04-11T00:30:51.493Z,7.50
2018-04-11T00:31:52.918Z,8.17
2018-04-11T00:32:54.339Z,8.20
2018-04-11T00:33:55.845Z,7.47
2018-04-11T00:34:57.257Z,7.23
2018-04-11T00:35:58.806Z,7.33
2018-04-11T00:37:00.239Z,7.60
2018-04-11T00:38:01.710Z,8.00
2018-04-11T00:39:03.253Z,7.37
2018-04-11T00:40:04.721Z,7.53
2018-04-11T00:41:06.164Z,7.93
2018-04-11T00:42:07.657Z,8.53
2018-04-11T00:43:09.351Z,7.37
2018-04-11T00:45:14.398Z,7.03
2018-04-11T00:46:15.853Z,7.90
2018-04-11T00:47:17.289Z,7.67
2018-04-11T00:48:20.713Z,8.90
2018-04-11T00:49:22.170Z,7.63
2018-04-11T00:50:25.068Z,9.27
2018-04-11T00:51:26.498Z,8.80
2018-04-11T00:52:27.920Z,8.60
2018-04-11T00:53:30.167Z,8.50
2018-04-11T00:54:32.368Z,8.53
2018-04-11T00:56:08.338Z,10.07
2018-04-11T00:57:09.774Z,9.27
2018-04-11T00:58:12.326Z,9.93
2018-04-11T00:59:14.116Z,9.37
2018-04-11T01:00:15.970Z,9.50
2018-04-11T01:01:18.224Z,9.67
2018-04-11T01:02:19.642Z,11.10
2018-04-11T01:03:21.058Z,10.10
2018-04-11T01:04:22.487Z,10.37
2018-04-11T01:05:25.043Z,10.13
2018-04-11T01:06:27.227Z,10.13
2018-04-11T01:07:28.726Z,11.30
2018-04-11T01:08:30.226Z,10.40
2018-04-11T01:09:32.126Z,10.43
2018-04-11T01:10:33.578Z,11.50
2018-04-11T01:11:35.012Z,10.83
2018-04-11T01:12:37.206Z,11.07
2018-04-11T01:13:38.673Z,11.33
2018-04-11T01:14:40.142Z,11.50
2018-04-11T01:15:41.573Z,11.80
2018-04-11T01:16:43.037Z,10.60
2018-04-11T01:17:44.494Z,10.63
2018-04-11T01:18:45.916Z,10.87
2018-04-11T01:19:47.396Z,11.17
2018-04-11T01:20:48.914Z,11.87
2018-04-11T01:21:50.343Z,11.10
2018-04-11T01:22:53.276Z,10.13
2018-04-11T01:23:55.434Z,12.13
2018-04-11T01:24:57.150Z,12.80
2018-04-11T01:25:58.614Z,11.10
2018-04-11T01:27:00.083Z,11.20
2018-04-11T01:28:01.550Z,11.07
2018-04-11T01:29:03.006Z,11.10
2018-04-11T01:30:04.481Z,11.27
2018-04-11T01:31:05.969Z,10.80
2018-04-11T01:32:08.128Z,10.97
2018-04-11T01:33:10.280Z,11.03
2018-04-11T01:34:11.673Z,11.80
2018-04-11T01:35:13.358Z,11.43
2018-04-11T01:36:14.748Z,12.00
2018-04-11T01:37:17.284Z,11.27
2018-04-11T01:38:18.738Z,10.27
2018-04-11T01:39:20.194Z,11.40
2018-04-11T01:40:21.665Z,11.03
2018-04-11T01:41:23.074Z,10.97
2018-04-11T01:42:24.490Z,11.40
2018-04-11T01:43:26.698Z,9.60
2018-04-11T01:44:28.169Z,10.43
2018-04-11T01:45:29.629Z,10.57
2018-04-11T01:46:31.097Z,10.90
2018-04-11T01:47:33.275Z,11.10
2018-04-11T01:48:35.457Z,11.37
2018-04-11T01:49:37.625Z,10.87
2018-04-11T01:50:45.042Z,10.57
2018-04-11T01:51:46.473Z,10.73
2018-04-11T01:52:47.913Z,10.27
2018-04-11T01:53:49.413Z,11.57
2018-04-11T01:54:50.848Z,10.63
2018-04-11T01:55:52.298Z,10.63
2018-04-11T01:56:53.744Z,10.10
2018-04-11T01:57:55.160Z,10.47
2018-04-11T01:58:57.313Z,9.83
2018-04-11T01:59:58.797Z,11.40
2018-04-11T02:01:00.296Z,9.90
2018-04-11T02:02:01.769Z,10.57
2018-04-11T02:03:03.219Z,10.40
2018-04-11T02:04:04.677Z,10.80
2018-04-11T02:05:06.074Z,9.97
2018-04-11T02:06:07.546Z,9.97
2018-04-11T02:07:08.989Z,10.40
2018-04-11T02:08:10.430Z,10.10
2018-04-11T02:09:11.856Z,9.73
2018-04-11T02:10:14.764Z,10.53
2018-04-11T02:11:16.220Z,10.90
2018-04-11T02:12:17.677Z,10.50
2018-04-11T02:13:20.060Z,9.97
2018-04-11T02:14:21.551Z,9.80
2018-04-11T02:15:23.717Z,10.57
2018-04-11T02:16:26.926Z,10.40
2018-04-11T02:17:29.889Z,9.20
2018-04-11T02:18:31.349Z,10.20
2018-04-11T02:19:32.801Z,9.30
2018-04-11T02:20:34.236Z,9.77
2018-04-11T02:21:35.753Z,9.57
2018-04-11T02:22:37.160Z,10.40
2018-04-11T02:23:38.585Z,10.07
2018-04-11T02:24:40.015Z,10.10
2018-04-11T02:25:41.439Z,10.43
2018-04-11T02:26:44.915Z,10.33
2018-04-11T02:27:47.092Z,10.50
2018-04-11T02:28:50.021Z,9.73
2018-04-11T02:29:51.461Z,9.97
2018-04-11T02:30:52.873Z,9.97
2018-04-11T02:31:55.353Z,9.53
2018-04-11T02:32:57.527Z,8.63
2018-04-11T02:34:00.125Z,10.10
2018-04-11T02:35:01.628Z,8.97
2018-04-11T02:36:03.083Z,8.30
2018-04-11T02:37:05.674Z,8.93
2018-04-11T02:38:07.826Z,9.70
2018-04-11T02:39:09.246Z,9.23
2018-04-11T02:40:10.685Z,8.43
2018-04-11T02:41:12.154Z,7.97
2018-04-11T02:42:13.626Z,8.37
2018-04-11T02:43:15.072Z,8.27
2018-04-11T02:44:16.494Z,7.87
2018-04-11T02:45:17.940Z,7.70
2018-04-11T02:46:19.394Z,8.20
2018-04-11T02:47:21.134Z,8.10
2018-04-11T02:48:22.583Z,7.53
2018-04-11T02:49:25.109Z,8.20
2018-04-11T02:50:26.580Z,7.70
2018-04-11T02:51:28.485Z,7.97
2018-04-11T02:52:30.242Z,6.80
2018-04-11T02:53:31.696Z,7.47
2018-04-11T02:54:33.156Z,6.83
2018-04-11T02:55:34.604Z,7.60
2018-04-11T02:56:36.067Z,7.30
2018-04-11T02:57:37.546Z,7.57
2018-04-11T02:58:38.992Z,7.10
2018-04-11T02:59:40.456Z,7.77
2018-04-11T03:00:41.908Z,7.20
2018-04-11T03:01:44.812Z,7.43
2018-04-11T03:02:47.272Z,6.97
2018-04-11T03:03:50.236Z,7.53
2018-04-11T03:04:52.464Z,7.30
2018-04-11T03:05:53.948Z,7.27
2018-04-11T03:06:55.459Z,7.17
2018-04-11T03:07:57.122Z,7.20
2018-04-11T03:08:58.714Z,6.93
2018-04-11T03:10:00.233Z,6.97
2018-04-11T03:11:01.761Z,8.03
2018-04-11T03:12:03.281Z,8.17
2018-04-11T03:13:04.785Z,7.23
2018-04-11T03:14:06.245Z,7.80
2018-04-11T03:15:07.725Z,8.60
2018-04-11T03:16:09.209Z,7.97
2018-04-11T03:17:10.690Z,6.80
2018-04-11T03:19:10.201Z,7.10
2018-04-11T03:20:12.444Z,8.10
2018-04-11T03:21:13.914Z,7.00
2018-04-11T03:22:56.598Z,9.20
2018-04-11T03:23:58.207Z,7.50
2018-04-11T03:25:00.818Z,8.20
2018-04-11T03:26:03.082Z,7.67
2018-04-11T03:27:04.558Z,7.37
2018-04-11T03:28:06.044Z,8.07
2018-04-11T03:29:08.276Z,8.53
2018-04-11T03:30:09.772Z,7.60
2018-04-11T03:31:12.734Z,8.63
2018-04-11T03:32:14.184Z,9.83
2018-04-11T03:33:15.662Z,8.33
2018-04-11T03:34:18.879Z,9.53
2018-04-11T03:35:20.486Z,8.27
2018-04-11T03:36:22.010Z,9.67
2018-04-11T03:37:25.200Z,10.87
2018-04-11T03:38:26.742Z,9.50
2018-04-11T03:39:28.254Z,11.03
2018-04-11T03:40:30.576Z,8.93
2018-04-11T03:42:18.573Z,9.30
2018-04-11T03:43:20.054Z,9.40
2018-04-11T03:45:37.820Z,9.93
2018-04-11T03:46:40.044Z,9.40
2018-04-11T03:47:41.528Z,10.67
2018-04-11T03:49:12.654Z,11.70
2018-04-11T03:50:14.155Z,9.13
2018-04-11T03:51:15.683Z,8.90
2018-04-11T03:52:17.179Z,9.50
2018-04-11T03:53:18.737Z,10.50
2018-04-11T03:54:20.266Z,12.27
2018-04-11T03:55:21.760Z,10.30
2018-04-11T03:56:25.000Z,10.57
2018-04-11T03:57:51.563Z,9.97
2018-04-11T03:58:53.081Z,10.20
2018-04-11T03:59:55.306Z,12.00
2018-04-11T04:00:56.826Z,11.07
2018-04-11T04:01:58.845Z,11.60
2018-04-11T04:05:41.375Z,10.90
2018-04-11T04:09:16.385Z,13.70
2018-04-11T04:10:19.161Z,13.73
2018-04-11T04:11:20.838Z,12.10
2018-04-11T04:15:24.866Z,13.73
2018-04-11T04:22:06.944Z,12.80
2018-04-11T04:23:08.724Z,12.27
2018-04-11T04:24:10.522Z,11.60
2018-04-11T04:31:53.103Z,11.33
2018-04-11T04:32:55.706Z,10.93
2018-04-11T04:33:58.275Z,11.10
2018-04-11T04:36:43.089Z,13.37
2018-04-11T04:47:41.642Z,12.63
2018-04-11T04:48:45.054Z,12.07
2018-04-11T04:50:03.023Z,12.27
2018-04-11T05:07:13.919Z,10.53
2018-04-11T05:08:18.302Z,11.83
2018-04-11T05:09:20.260Z,11.50
2018-04-11T05:18:21.032Z,12.37
2018-04-11T05:19:22.778Z,12.60
2018-04-11T05:24:29.994Z,12.50
2018-04-11T05:25:32.604Z,11.53
2018-04-11T05:26:34.428Z,13.47
2018-04-11T05:30:21.931Z,9.60
2018-04-11T05:32:43.877Z,9.50
2018-04-11T05:33:45.716Z,12.17
2018-04-11T05:34:47.486Z,10.43
2018-04-11T05:42:10.150Z,11.43
2018-04-11T05:45:55.642Z,10.50
2018-04-11T05:50:23.734Z,10.43
2018-04-11T05:55:18.656Z,11.70
2018-04-11T05:56:20.616Z,12.93
2018-04-11T05:57:22.727Z,10.40
2018-04-11T05:58:24.888Z,9.33
2018-04-11T05:59:26.892Z,9.93
2018-04-11T06:00:30.431Z,10.97
2018-04-11T06:09:03.008Z,8.53
2018-04-11T06:14:30.055Z,7.60
2018-04-11T06:15:31.875Z,7.47
2018-04-11T06:16:33.600Z,7.30
2018-04-11T06:17:35.370Z,8.00
2018-04-11T06:18:37.232Z,8.17
2018-04-11T06:19:40.638Z,7.23
2018-04-11T06:20:42.475Z,8.13
2018-04-11T06:24:21.873Z,9.50
2018-04-11T06:27:59.220Z,8.23
2018-04-11T06:29:02.644Z,7.60
2018-04-11T06:33:18.836Z,8.07
2018-04-11T06:34:20.358Z,9.03
2018-04-11T06:35:22.596Z,9.37
2018-04-11T06:38:32.875Z,8.17
2018-04-11T06:39:34.392Z,8.87
2018-04-11T06:40:35.970Z,8.37
2018-04-11T06:41:39.150Z,8.10
2018-04-11T06:42:42.318Z,8.23
2018-04-11T06:43:45.500Z,7.50
2018-04-11T06:44:48.681Z,8.40
2018-04-11T06:47:10.212Z,8.23
2018-04-11T06:53:43.981Z,7.93
2018-04-11T06:54:47.176Z,8.10
2018-04-11T06:55:48.812Z,7.13
2018-04-11T06:56:51.821Z,7.70
2018-04-11T06:57:54.837Z,9.80
2018-04-11T06:58:58.100Z,8.03
2018-04-11T07:00:01.365Z,7.40
2018-04-11T07:01:02.914Z,8.40
2018-04-11T07:02:06.128Z,9.30
2018-04-11T07:03:09.388Z,8.37
2018-04-11T07:04:10.886Z,7.90
2018-04-11T07:05:14.072Z,8.43
2018-04-11T07:07:18.564Z,7.33
2018-04-11T07:08:21.660Z,7.47
2018-04-11T07:09:23.077Z,9.33
2018-04-11T07:10:24.476Z,8.50
2018-04-11T07:11:25.884Z,7.57
2018-04-11T07:12:27.274Z,9.43
2018-04-11T07:13:31.088Z,7.40
2018-04-11T07:14:32.761Z,9.67
2018-04-11T07:15:34.597Z,8.03
2018-04-11T07:16:35.997Z,7.10
2018-04-11T07:17:37.382Z,8.40
2018-04-11T07:18:40.508Z,8.40
2018-04-11T07:19:43.889Z,8.77
2018-04-11T07:20:45.311Z,8.77
2018-04-11T07:21:47.444Z,7.37
2018-04-11T07:22:49.559Z,7.20
2018-04-11T07:23:50.936Z,7.83
2018-04-11T07:24:52.638Z,8.23
2018-04-11T07:25:54.049Z,10.03
2018-04-11T07:26:56.542Z,9.77
2018-04-11T07:27:57.920Z,7.63
2018-04-11T07:28:59.338Z,6.90
2018-04-11T07:30:01.488Z,7.73
2018-04-11T07:31:03.631Z,7.47
2018-04-11T07:32:06.807Z,7.27
2018-04-11T07:33:08.224Z,7.43
2018-04-11T07:34:09.638Z,7.80
2018-04-11T07:35:12.576Z,7.43
2018-04-11T07:36:13.968Z,8.83
2018-04-11T07:37:15.390Z,8.10
2018-04-11T07:38:17.550Z,8.63
2018-04-11T07:39:18.945Z,8.13
2018-04-11T07:40:20.392Z,7.50
2018-04-11T07:41:22.502Z,7.37
2018-04-11T07:42:25.599Z,7.50
2018-04-11T07:43:26.994Z,7.43
2018-04-11T07:44:28.423Z,8.30
2018-04-11T07:45:30.613Z,7.30
2018-04-11T07:46:32.033Z,8.57
2018-04-11T07:47:33.430Z,9.87
2018-04-11T07:48:36.549Z,9.67
2018-04-11T07:49:37.942Z,7.90
2018-04-11T07:50:39.350Z,8.40
2018-04-11T07:51:42.501Z,9.97
2018-04-11T07:52:45.617Z,7.87
2018-04-11T07:53:48.704Z,8.13
2018-04-11T07:54:51.594Z,8.73
2018-04-11T07:55:54.744Z,7.30
2018-04-11T07:56:57.885Z,10.80
2018-04-11T07:57:59.295Z,8.67
2018-04-11T07:59:02.399Z,8.27
2018-04-11T08:00:04.547Z,8.50
2018-04-11T08:01:05.994Z,7.50
2018-04-11T08:02:07.407Z,8.47
2018-04-11T08:03:08.857Z,7.67
2018-04-11T08:04:10.196Z,7.23
2018-04-11T08:05:11.617Z,9.40
2018-04-11T08:06:13.044Z,8.70
2018-04-11T08:07:14.450Z,8.10
2018-04-11T08:08:17.556Z,7.60
2018-04-11T08:09:18.947Z,7.60
2018-04-11T08:10:20.345Z,7.83
2018-04-11T08:11:21.766Z,7.60
2018-04-11T08:12:24.935Z,6.87
2018-04-11T08:13:26.374Z,6.90
2018-04-11T08:14:28.602Z,8.03
2018-04-11T08:15:30.022Z,8.40
2018-04-11T08:16:31.456Z,6.67
2018-04-11T08:17:33.588Z,8.20
2018-04-11T08:18:34.978Z,8.40
2018-04-11T08:19:36.428Z,7.73
2018-04-11T08:20:39.560Z,8.67
2018-04-11T08:21:42.691Z,7.37
2018-04-11T08:22:44.109Z,6.87
2018-04-11T08:23:45.406Z,6.73
2018-04-11T08:24:47.527Z,6.80
2018-04-11T08:25:49.695Z,7.43
2018-04-11T08:26:52.895Z,7.37
2018-04-11T08:27:54.282Z,6.77
2018-04-11T08:28:55.716Z,6.77
2018-04-11T08:29:57.151Z,7.13
2018-04-11T08:30:59.276Z,7.80
2018-04-11T08:32:02.431Z,7.13
2018-04-11T08:33:04.564Z,7.97
2018-04-11T08:34:06.689Z,6.77
2018-04-11T08:35:08.085Z,6.90
2018-04-11T08:36:09.497Z,8.23
2018-04-11T08:37:11.642Z,8.33
2018-04-11T08:38:13.046Z,7.33
2018-04-11T08:39:14.430Z,7.00
2018-04-11T08:40:15.830Z,7.07
2018-04-11T08:41:18.925Z,6.53
2018-04-11T08:42:20.333Z,7.70
2018-04-11T08:43:21.735Z,8.00
2018-04-11T08:44:23.129Z,7.67
2018-04-11T08:45:24.549Z,8.30
2018-04-11T08:46:26.682Z,7.47
2018-04-11T08:47:29.557Z,6.00
2018-04-11T08:48:31.688Z,6.70
2018-04-11T08:49:33.121Z,6.27
2018-04-11T08:50:34.566Z,6.37
2018-04-11T08:51:35.960Z,7.43
2018-04-11T08:52:37.418Z,6.73
2018-04-11T08:53:38.772Z,7.20
2018-04-11T08:54:40.160Z,5.97
2018-04-11T08:55:41.537Z,6.90
2018-04-11T08:56:44.629Z,7.37
2018-04-11T08:57:46.770Z,8.00
2018-04-11T08:58:48.140Z,6.63
2018-04-11T08:59:49.514Z,6.20
2018-04-11T09:00:51.648Z,5.40
2018-04-11T09:01:54.743Z,6.37
2018-04-11T09:02:56.134Z,6.73
2018-04-11T09:03:58.643Z,6.17
2018-04-11T09:05:00.041Z,5.60
2018-04-11T09:06:01.456Z,5.37
2018-04-11T09:07:03.658Z,6.57
2018-04-11T09:08:05.810Z,6.83
2018-04-11T09:09:07.216Z,6.83
2018-04-11T09:10:10.320Z,6.57
2018-04-11T09:11:13.410Z,6.20
2018-04-11T09:12:14.810Z,6.33
2018-04-11T09:13:16.481Z,5.93
2018-04-11T09:14:17.866Z,6.73
2018-04-11T09:15:19.250Z,4.93
2018-04-11T09:16:20.646Z,6.00
2018-04-11T09:17:23.748Z,6.43
2018-04-11T09:18:26.631Z,6.30
2018-04-11T09:19:29.732Z,7.63
2018-04-11T09:20:31.899Z,6.73
2018-04-11T09:21:35.004Z,6.67
2018-04-11T09:22:37.867Z,6.37
2018-04-11T09:23:40.015Z,8.10
2018-04-11T09:24:42.894Z,6.30
2018-04-11T09:25:45.992Z,7.97
2018-04-11T09:26:49.148Z,7.77
2018-04-11T09:27:52.341Z,8.40
2018-04-11T09:28:55.455Z,8.17
2018-04-11T09:29:56.865Z,6.63
2018-04-11T09:30:59.982Z,7.43
2018-04-11T09:32:01.398Z,7.03
2018-04-11T09:33:02.841Z,7.13
2018-04-11T09:34:04.968Z,6.30
2018-04-11T09:35:06.355Z,6.87
2018-04-11T09:36:09.454Z,6.27
2018-04-11T09:37:10.842Z,6.60
2018-04-11T09:38:12.984Z,6.63
2018-04-11T09:39:14.388Z,7.90
2018-04-11T09:40:17.490Z,6.33
2018-04-11T09:41:19.989Z,6.43
2018-04-11T09:42:21.381Z,5.90
2018-04-11T09:43:22.773Z,7.10
2018-04-11T09:44:26.152Z,6.53
2018-04-11T09:45:29.269Z,6.50
2018-04-11T09:46:32.383Z,5.50
2018-04-11T09:47:34.886Z,5.33
2018-04-11T09:48:37.982Z,5.60
2018-04-11T09:49:39.381Z,5.27
2018-04-11T09:50:42.511Z,5.33
2018-04-11T09:51:43.902Z,4.27
2018-04-11T09:52:46.028Z,5.33
2018-04-11T09:53:47.439Z,6.93
2018-04-11T09:54:48.844Z,5.03
2018-04-11T09:55:51.001Z,6.40
2018-04-11T09:56:52.393Z,23.00
2018-04-11T09:57:54.918Z,13.13
2018-04-11T09:58:56.314Z,9.60
2018-04-11T09:59:57.751Z,9.30
2018-04-11T10:01:03.690Z,9.57
2018-04-11T10:02:06.012Z,10.67
2018-04-11T10:03:07.410Z,12.83
2018-04-11T10:04:10.524Z,8.43
2018-04-11T10:05:13.651Z,9.07
2018-04-11T10:06:15.053Z,6.37
2018-04-11T10:07:17.942Z,5.70
2018-04-11T10:08:21.041Z,6.33
2018-04-11T10:09:22.437Z,5.37
2018-04-11T10:10:23.842Z,5.33
2018-04-11T10:11:25.960Z,5.10
2018-04-11T10:12:27.352Z,4.60
2018-04-11T10:13:29.856Z,4.90
2018-04-11T10:14:31.993Z,4.70
2018-04-11T10:15:35.153Z,4.63
2018-04-11T10:16:36.542Z,5.10
2018-04-11T10:17:39.669Z,4.47
2018-04-11T10:21:15.189Z,3.47
2018-04-11T10:22:18.322Z,3.77
2018-04-11T10:23:21.467Z,3.27
2018-04-11T10:24:24.584Z,2.80
2018-04-11T10:25:26.702Z,3.27
2018-04-11T10:26:29.863Z,3.63
2018-04-11T10:27:32.954Z,2.90
2018-04-11T10:28:35.873Z,3.20
2018-04-11T10:29:37.992Z,2.70
2018-04-11T10:30:41.060Z,3.13
2018-04-11T10:31:44.404Z,2.90
2018-04-11T10:32:47.686Z,2.37
2018-04-11T10:33:50.421Z,3.00
2018-04-11T10:34:53.791Z,2.60
2018-04-11T10:35:56.211Z,3.07
2018-04-11T10:36:59.647Z,3.00
2018-04-11T10:42:00.435Z,2.40
2018-04-11T10:43:02.231Z,2.67
2018-04-11T10:44:05.536Z,2.80
2018-04-11T10:45:08.870Z,2.90
2018-04-11T10:47:32.029Z,2.70
2018-04-11T10:48:35.368Z,2.87
2018-04-11T10:49:37.106Z,2.93
2018-04-11T10:50:40.413Z,2.50
2018-04-11T10:54:00.173Z,2.57
2018-04-11T10:55:03.619Z,2.40
2018-04-11T10:56:06.944Z,2.50
2018-04-11T10:57:10.339Z,3.20
2018-04-11T10:58:13.693Z,2.50
2018-04-11T10:59:16.469Z,2.47
2018-04-11T11:00:19.798Z,2.50
2018-04-11T11:01:23.227Z,3.00
2018-04-11T11:02:24.835Z,2.83
2018-04-11T11:06:09.459Z,2.43
2018-04-11T11:14:03.872Z,2.67
2018-04-11T11:15:05.571Z,2.40
2018-04-11T11:16:07.566Z,2.67
2018-04-11T11:17:10.867Z,2.50
2018-04-11T11:19:00.923Z,2.00
2018-04-11T11:20:04.060Z,2.13
2018-04-11T11:21:07.165Z,2.30
2018-04-11T11:22:10.305Z,2.20
2018-04-11T11:23:13.421Z,2.00
2018-04-11T11:24:16.528Z,2.07
2018-04-11T11:25:19.661Z,1.90
2018-04-11T11:26:21.101Z,1.97
2018-04-11T11:27:24.188Z,1.83
2018-04-11T11:28:25.591Z,1.90
2018-04-11T11:29:28.753Z,1.70
2018-04-11T11:30:30.835Z,1.80
2018-04-11T11:34:12.422Z,1.83
2018-04-11T11:35:15.868Z,2.30
2018-04-11T11:37:36.359Z,1.90
2018-04-11T11:38:38.057Z,2.10
2018-04-11T11:39:40.871Z,2.20
2018-04-11T11:40:44.191Z,2.60
2018-04-11T11:42:29.639Z,2.10
2018-04-11T11:45:39.864Z,2.30
2018-04-11T11:47:44.541Z,1.80
2018-04-11T11:48:47.893Z,2.40
2018-04-11T11:51:10.644Z,2.43
2018-04-11T11:52:13.818Z,1.90
2018-04-11T11:53:16.997Z,1.73
2018-04-11T11:54:20.190Z,2.20
2018-04-11T11:55:21.695Z,2.00
2018-04-11T11:56:23.162Z,1.90
2018-04-11T11:57:26.310Z,2.00
2018-04-11T11:59:48.369Z,2.30
2018-04-11T12:00:51.704Z,2.47
2018-04-11T12:01:53.472Z,2.70
2018-04-11T12:02:55.258Z,2.60
2018-04-11T12:03:59.423Z,2.43
2018-04-11T12:05:02.183Z,2.60
2018-04-11T12:06:05.343Z,2.30
2018-04-11T12:07:08.781Z,2.27
2018-04-11T12:08:12.201Z,2.50
2018-04-11T12:09:15.632Z,2.37
2018-04-11T12:10:17.283Z,2.50
2018-04-11T12:12:02.993Z,3.30
2018-04-11T12:13:06.333Z,2.60
2018-04-11T12:14:09.663Z,2.70
2018-04-11T12:15:13.039Z,2.57
2018-04-11T12:16:14.679Z,2.93
2018-04-11T12:17:16.424Z,2.77
2018-04-11T12:18:19.687Z,3.40
2018-04-11T12:19:22.810Z,4.07
2018-04-11T12:20:25.955Z,4.03
2018-04-11T12:21:29.061Z,3.27
2018-04-11T12:22:31.957Z,3.03
2018-04-11T12:23:35.541Z,3.20
2018-04-11T12:24:36.921Z,3.10
2018-04-11T12:25:40.057Z,3.40
2018-04-11T12:26:43.148Z,3.07
2018-04-11T12:27:46.256Z,3.53
2018-04-11T12:28:49.353Z,3.57
2018-04-11T12:29:50.773Z,3.80
2018-04-11T12:30:52.551Z,4.37
2018-04-11T12:31:55.843Z,4.43
2018-04-11T12:34:35.527Z,4.60
2018-04-11T12:35:38.951Z,4.00
2018-04-11T12:36:42.481Z,3.93
2018-04-11T12:37:44.377Z,4.23
2018-04-11T12:38:46.051Z,4.67
2018-04-11T12:39:49.399Z,3.80
2018-04-11T12:40:52.837Z,4.20
2018-04-11T12:41:56.282Z,4.17
2018-04-11T12:42:59.698Z,4.17
2018-04-11T12:44:19.811Z,4.77
2018-04-11T12:46:41.345Z,5.07
2018-04-11T12:47:43.339Z,3.93
2018-04-11T12:48:46.679Z,3.27
2018-04-11T12:49:50.041Z,4.10
2018-04-11T12:50:53.277Z,4.60
2018-04-11T12:51:55.072Z,4.90
2018-04-11T12:52:58.998Z,5.10
2018-04-11T12:54:02.387Z,4.30
2018-04-11T12:55:05.715Z,4.60
2018-04-11T12:56:07.417Z,4.73
2018-04-11T12:57:09.161Z,4.47
2018-04-11T12:58:12.581Z,4.57
2018-04-11T12:59:14.224Z,4.07
2018-04-11T13:00:17.486Z,4.97
2018-04-11T13:07:51.337Z,3.80
2018-04-11T13:08:54.580Z,4.40
2018-04-11T13:12:37.170Z,4.93
2018-04-11T13:13:40.677Z,6.00
2018-04-11T13:14:44.152Z,5.33
2018-04-11T13:19:18.449Z,4.80
2018-04-11T13:23:26.887Z,5.50
2018-04-11T13:24:30.271Z,9.07
2018-04-11T13:25:33.718Z,7.00
2018-04-11T13:27:49.120Z,7.23
2018-04-11T13:28:52.505Z,5.43
2018-04-11T13:29:55.989Z,5.57
2018-04-11T13:32:17.793Z,5.37
2018-04-11T13:33:19.453Z,4.20
2018-04-11T13:34:21.156Z,5.93
2018-04-11T13:35:24.535Z,4.80
2018-04-11T13:36:26.261Z,4.97
2018-04-11T13:37:28.067Z,4.80
2018-04-11T13:38:29.765Z,4.10
2018-04-11T13:39:31.481Z,4.10
2018-04-11T13:40:35.162Z,4.77
2018-04-11T13:44:16.537Z,5.63
2018-04-11T13:45:18.228Z,5.13
2018-04-11T13:46:21.435Z,6.40
2018-04-11T13:47:24.640Z,5.97
2018-04-11T13:48:27.787Z,5.37
2018-04-11T13:49:29.325Z,6.50
2018-04-11T13:50:30.882Z,5.47
2018-04-11T13:51:33.473Z,6.33
2018-04-11T13:52:36.643Z,6.20
2018-04-11T13:53:38.169Z,5.60
2018-04-11T13:54:39.573Z,5.40
2018-04-11T13:55:41.097Z,6.13
2018-04-11T13:56:42.509Z,7.07
2018-04-11T13:57:45.585Z,7.40
2018-04-11T13:59:43.739Z,6.07
2018-04-11T14:04:50.429Z,6.63
2018-04-11T14:07:11.193Z,6.20
2018-04-11T14:08:28.884Z,6.50
2018-04-11T14:13:29.536Z,8.37
2018-04-11T14:16:08.624Z,6.77
2018-04-11T14:17:10.283Z,7.17
2018-04-11T14:18:59.638Z,7.83
2018-04-11T14:20:02.896Z,7.23
2018-04-11T14:21:06.069Z,8.20
2018-04-11T14:22:09.191Z,7.97
2018-04-11T14:23:10.738Z,6.60
2018-04-11T14:24:13.534Z,6.37
2018-04-11T14:29:51.279Z,5.33
2018-04-11T14:36:46.605Z,7.00
2018-04-11T14:37:48.299Z,6.63
2018-04-11T14:38:50.027Z,5.60
2018-04-11T14:39:53.405Z,6.30
2018-04-11T14:40:56.583Z,6.40
2018-04-11T14:41:59.955Z,7.13
2018-04-11T14:43:01.698Z,7.33
2018-04-11T14:44:03.391Z,6.93
2018-04-11T14:45:06.821Z,7.10
2018-04-11T14:46:08.468Z,7.70
2018-04-11T14:47:40.909Z,9.07
2018-04-11T14:48:44.323Z,9.57
2018-04-11T14:49:47.560Z,6.50
2018-04-11T14:50:49.186Z,8.20
2018-04-11T14:51:52.515Z,8.50
2018-04-11T14:52:54.199Z,8.00
2018-04-11T14:53:57.600Z,7.37
2018-04-11T15:04:40.632Z,2.40
2018-04-11T15:05:42.347Z,2.47
2018-04-11T15:06:44.141Z,2.33
2018-04-11T15:07:47.487Z,2.10
2018-04-11T15:08:49.159Z,2.00
2018-04-11T15:09:51.579Z,2.00
2018-04-11T15:10:54.898Z,5.83
2018-04-11T15:11:58.391Z,2.60
2018-04-11T15:13:01.770Z,2.67
2018-04-11T15:14:03.502Z,2.37
2018-04-11T15:15:06.678Z,3.13
2018-04-11T15:16:08.389Z,2.30
2018-04-11T15:18:32.271Z,2.50
2018-04-11T15:19:52.265Z,2.07
2018-04-11T15:20:53.978Z,2.43
2018-04-11T15:21:55.709Z,1.97
2018-04-11T15:22:57.376Z,2.07
2018-04-11T15:23:58.845Z,1.90
2018-04-11T15:25:01.957Z,2.03
2018-04-11T15:26:05.057Z,2.47
2018-04-11T15:27:07.566Z,2.73
2018-04-11T15:28:10.701Z,2.00
2018-04-11T15:29:12.081Z,1.60
2018-04-11T15:30:15.288Z,1.97
2018-04-11T15:31:18.781Z,1.80
2018-04-11T15:32:20.436Z,2.27
2018-04-11T15:33:22.134Z,1.77
2018-04-11T15:34:56.478Z,2.13
2018-04-11T15:35:59.861Z,1.80
2018-04-11T15:37:01.682Z,2.00
2018-04-11T15:38:04.551Z,2.17
2018-04-11T15:39:06.350Z,1.83
2018-04-11T15:40:09.745Z,1.70
2018-04-11T15:41:11.503Z,2.07
2018-04-11T15:42:14.951Z,1.87
2018-04-11T15:43:17.446Z,2.10
2018-04-11T15:44:20.867Z,2.50
2018-04-11T15:45:22.630Z,1.77
2018-04-11T15:46:37.907Z,2.93
2018-04-11T15:47:39.652Z,2.27
2018-04-11T15:48:41.324Z,2.20
2018-04-11T15:49:44.661Z,2.50
2018-04-11T15:50:46.355Z,2.60
2018-04-11T15:51:49.693Z,3.13
2018-04-11T15:52:51.411Z,2.17
2018-04-11T15:53:53.171Z,1.83
2018-04-11T15:54:56.485Z,1.80
2018-04-11T15:55:59.915Z,2.20
2018-04-11T15:57:03.347Z,1.33
2018-04-11T15:58:06.679Z,1.87
2018-04-11T16:00:02.372Z,1.70
2018-04-11T16:01:04.801Z,1.53
2018-04-11T16:02:06.492Z,1.60
2018-04-11T16:03:09.769Z,2.20
2018-04-11T16:04:11.461Z,1.80
2018-04-11T16:05:14.795Z,1.73
2018-04-11T16:06:16.474Z,1.40
2018-04-11T16:07:44.859Z,1.97
2018-04-11T16:08:48.213Z,1.90
2018-04-11T16:09:49.934Z,1.67
2018-04-11T16:10:53.241Z,1.70
2018-04-11T16:11:56.558Z,1.80
2018-04-11T16:12:59.963Z,1.80
2018-04-11T16:14:01.746Z,1.80
2018-04-11T16:15:05.093Z,2.00
2018-04-11T16:16:08.414Z,1.50
2018-04-11T16:18:40.302Z,2.00
2018-04-11T16:19:43.723Z,1.93
2018-04-11T16:20:45.411Z,1.90
2018-04-11T16:21:48.703Z,2.07
2018-04-11T16:22:52.111Z,1.60
2018-04-11T16:23:55.353Z,1.50
2018-04-11T16:24:59.499Z,2.17
2018-04-11T16:26:02.849Z,1.80
2018-04-11T16:27:06.207Z,3.07
2018-04-11T16:28:09.499Z,4.10
2018-04-11T16:29:11.859Z,4.77
2018-04-11T16:30:15.136Z,5.00
2018-04-11T16:32:59.739Z,4.80
2018-04-11T16:34:01.361Z,6.03
2018-04-11T16:35:04.700Z,4.37
2018-04-11T16:36:07.897Z,5.70
2018-04-11T16:37:09.531Z,4.87
2018-04-11T16:38:12.856Z,3.80
2018-04-11T16:39:41.493Z,3.73
2018-04-11T16:40:44.784Z,2.10
2018-04-11T16:41:46.519Z,1.80
2018-04-11T16:42:49.875Z,2.03
2018-04-11T16:43:53.247Z,2.10
2018-04-11T16:45:38.017Z,2.50
2018-04-11T16:46:39.477Z,2.23
2018-04-11T16:49:28.295Z,1.73
2018-04-11T16:50:31.579Z,2.00
2018-04-11T16:51:34.853Z,2.10
2018-04-11T16:52:38.261Z,2.40
2018-04-11T16:53:39.959Z,1.70
2018-04-11T16:54:43.317Z,2.20
2018-04-11T16:55:46.663Z,1.70
2018-04-11T16:56:48.355Z,2.13
2018-04-11T16:57:51.612Z,2.03
2018-04-11T16:58:54.936Z,2.27
2018-04-11T16:59:58.431Z,1.83
2018-04-11T17:01:00.126Z,2.47
2018-04-11T17:02:02.992Z,1.80
2018-04-11T17:03:06.357Z,2.13
2018-04-11T17:04:08.069Z,1.80
2018-04-11T17:05:11.449Z,2.53
2018-04-11T17:06:14.819Z,2.27
2018-04-11T17:07:18.129Z,1.90
2018-04-11T17:08:20.579Z,1.70
2018-04-11T17:09:23.965Z,2.00
2018-04-11T17:10:25.656Z,2.40
2018-04-11T17:11:29.139Z,2.57
2018-04-11T17:12:31.991Z,1.87
2018-04-11T17:13:35.329Z,1.90
2018-04-11T17:14:37.040Z,2.40
2018-04-11T17:15:40.447Z,2.23
2018-04-11T17:16:43.840Z,2.60
2018-04-11T17:17:45.521Z,2.43
2018-04-11T17:18:48.957Z,1.93
2018-04-11T17:19:50.721Z,2.70
2018-04-11T17:21:06.155Z,1.93
2018-04-11T17:22:25.951Z,2.33